Time;durP1;ratioP1;P1;durP2;ratioP2;P2;SDS_P1;SDS_P2;PMS_P1;PMS_P2;Temp;Humidity;BMP_temperature;BMP_pressure;BME280_temperature;BME280_humidity;BME280_pressure;Samples;Min_cycle;Max_cycle;Signal;HPM_P1;HPM_P2
2021/12/31 00:00:25;;;;;;;5.53;4.57;;;14.10;99.90;;;;;;4983639;28;20177;-57
2021/12/31 00:02:51;;;;;;;4.80;3.57;;;14.20;99.90;;;;;;4979999;28;20491;-57
2021/12/31 00:05:17;;;;;;;4.73;3.70;;;14.20;99.90;;;;;;4980926;28;20462;-55
2021/12/31 00:07:43;;;;;;;3.90;3.50;;;14.20;99.90;;;;;;4980646;28;20232;-57
2021/12/31 00:10:09;;;;;;;7.13;4.00;;;14.10;99.90;;;;;;4984382;28;20651;-53
2021/12/31 00:12:36;;;;;;;5.40;3.50;;;14.10;99.90;;;;;;4981851;28;20434;-55
2021/12/31 00:15:03;;;;;;;7.37;3.70;;;14.00;99.90;;;;;;4980044;28;20523;-53
2021/12/31 00:17:28;;;;;;;4.10;3.17;;;14.00;99.90;;;;;;4981919;28;20495;-56
2021/12/31 00:20:04;;;;;;;4.60;3.20;;;14.10;99.90;;;;;;4982917;28;20492;-55
2021/12/31 00:24:59;;;;;;;5.97;4.30;;;14.00;99.90;;;;;;4983469;28;20448;-53
2021/12/31 00:27:25;;;;;;;5.53;3.50;;;14.00;99.90;;;;;;4980231;28;20489;-52
2021/12/31 00:29:50;;;;;;;3.90;3.00;;;14.00;99.90;;;;;;4981971;28;20593;-55
2021/12/31 00:32:18;;;;;;;3.87;3.10;;;14.00;99.90;;;;;;4983217;28;20448;-55
2021/12/31 00:34:44;;;;;;;3.93;3.57;;;14.00;99.90;;;;;;4982207;28;20199;-57
2021/12/31 00:37:09;;;;;;;4.47;3.47;;;14.00;99.90;;;;;;4982406;28;20422;-55
2021/12/31 00:39:35;;;;;;;5.00;3.60;;;14.00;99.90;;;;;;4983588;28;20473;-57
2021/12/31 00:42:00;;;;;;;7.40;3.33;;;13.90;99.90;;;;;;4983049;28;20264;-56
2021/12/31 00:44:26;;;;;;;6.50;3.77;;;13.90;99.90;;;;;;4983138;28;20256;-57
2021/12/31 00:46:52;;;;;;;4.20;3.20;;;13.90;99.90;;;;;;4983112;28;20663;-56
2021/12/31 00:49:17;;;;;;;6.47;3.60;;;13.90;99.90;;;;;;4984163;28;20317;-54
2021/12/31 00:51:43;;;;;;;5.03;3.90;;;13.90;99.90;;;;;;4984796;28;20197;-53
2021/12/31 00:54:08;;;;;;;4.40;3.73;;;13.80;99.90;;;;;;4984998;28;20190;-56
2021/12/31 00:56:34;;;;;;;5.43;3.80;;;13.80;99.90;;;;;;4984777;28;20228;-52
2021/12/31 00:59:00;;;;;;;5.00;3.30;;;13.80;99.90;;;;;;4988009;28;20212;-55
2021/12/31 01:01:26;;;;;;;4.33;3.73;;;13.80;99.90;;;;;;4986821;28;20182;-53
2021/12/31 01:03:52;;;;;;;3.87;3.20;;;13.80;99.90;;;;;;4983332;28;20463;-57
2021/12/31 01:06:18;;;;;;;5.20;3.53;;;13.80;99.90;;;;;;4988345;28;20973;-55
2021/12/31 01:08:44;;;;;;;4.83;3.30;;;13.80;99.90;;;;;;4986203;28;20192;-56
2021/12/31 01:11:10;;;;;;;4.87;3.63;;;13.90;99.90;;;;;;4986251;28;20505;-56
2021/12/31 01:13:49;;;;;;;4.70;3.70;;;13.80;99.90;;;;;;4985379;28;20568;-55
2021/12/31 01:16:17;;;;;;;4.93;3.60;;;13.90;99.90;;;;;;4985716;28;20464;-57
2021/12/31 01:21:15;;;;;;;6.10;4.20;;;13.80;99.90;;;;;;4985193;28;20420;-56
2021/12/31 01:23:41;;;;;;;4.30;3.63;;;13.90;99.90;;;;;;4985518;28;20444;-57
2021/12/31 01:26:06;;;;;;;5.57;3.30;;;14.00;99.90;;;;;;4985151;28;20507;-56
2021/12/31 01:28:32;;;;;;;4.20;3.20;;;14.00;99.90;;;;;;4988140;28;20965;-55
2021/12/31 01:30:58;;;;;;;5.70;3.70;;;13.90;99.90;;;;;;4986609;28;20236;-57
2021/12/31 01:33:23;;;;;;;5.20;3.17;;;13.90;99.90;;;;;;4988524;28;20235;-57
2021/12/31 01:35:49;;;;;;;7.53;3.40;;;13.80;99.90;;;;;;4987042;28;20558;-56
2021/12/31 01:38:17;;;;;;;8.43;4.50;;;13.70;99.90;;;;;;4985250;28;20194;-57
2021/12/31 01:40:43;;;;;;;6.63;3.90;;;13.70;99.90;;;;;;4987209;28;20426;-57
2021/12/31 01:43:11;;;;;;;3.80;3.30;;;13.60;99.90;;;;;;4983204;28;20430;-56
2021/12/31 01:45:43;;;;;;;4.03;3.10;;;13.70;99.90;;;;;;4984323;28;20202;-53
2021/12/31 01:48:22;;;;;;;4.07;3.37;;;13.50;99.90;;;;;;4985063;28;20455;-56
2021/12/31 01:50:49;;;;;;;4.10;3.70;;;13.40;99.90;;;;;;4984321;28;20921;-57
2021/12/31 01:53:19;;;;;;;12.60;3.40;;;13.40;99.90;;;;;;4985286;28;20483;-57
2021/12/31 01:55:45;;;;;;;3.63;3.33;;;13.40;99.90;;;;;;4985795;28;20437;-55
2021/12/31 01:58:12;;;;;;;6.30;3.50;;;13.40;99.90;;;;;;4984740;28;20460;-56
2021/12/31 02:00:38;;;;;;;4.30;3.87;;;13.40;99.90;;;;;;4983663;28;20440;-57
2021/12/31 02:03:05;;;;;;;3.70;3.20;;;13.30;99.90;;;;;;4983648;28;20867;-54
2021/12/31 02:05:31;;;;;;;3.90;3.60;;;13.30;99.90;;;;;;4986430;28;20440;-56
2021/12/31 02:07:58;;;;;;;3.60;3.00;;;13.30;99.90;;;;;;4985107;28;20815;-56
2021/12/31 02:10:25;;;;;;;3.40;2.90;;;13.30;99.90;;;;;;4983774;28;20200;-54
2021/12/31 02:12:51;;;;;;;3.87;3.47;;;13.20;99.90;;;;;;4984051;28;20509;-56
2021/12/31 02:15:20;;;;;;;3.80;3.30;;;13.20;99.90;;;;;;4985101;28;20467;-57
2021/12/31 02:17:48;;;;;;;3.87;3.07;;;13.20;99.90;;;;;;4982619;28;20465;-56
2021/12/31 02:20:15;;;;;;;7.90;3.80;;;13.10;99.90;;;;;;4983325;28;20433;-53
2021/12/31 02:22:52;;;;;;;4.53;3.03;;;13.10;99.90;;;;;;4986711;28;20432;-55
2021/12/31 02:25:20;;;;;;;6.20;3.53;;;13.10;99.90;;;;;;4980602;28;20523;-58
2021/12/31 02:27:45;;;;;;;4.33;3.37;;;13.10;99.90;;;;;;4983797;28;20425;-55
2021/12/31 02:30:11;;;;;;;4.40;3.50;;;13.20;99.90;;;;;;4983931;28;20452;-56
2021/12/31 02:32:38;;;;;;;7.73;3.70;;;13.10;99.90;;;;;;4983261;28;20192;-55
2021/12/31 02:35:06;;;;;;;6.13;3.87;;;13.20;99.90;;;;;;4984811;28;20695;-55
2021/12/31 02:37:32;;;;;;;5.77;3.93;;;13.10;99.90;;;;;;4983358;28;20519;-55
2021/12/31 02:40:01;;;;;;;6.63;3.83;;;13.10;99.90;;;;;;4984238;28;20445;-57
2021/12/31 02:42:26;;;;;;;5.27;3.70;;;13.20;99.90;;;;;;4981703;28;20806;-56
2021/12/31 02:44:54;;;;;;;5.00;3.57;;;13.20;99.90;;;;;;4983652;28;20556;-56
2021/12/31 02:47:20;;;;;;;5.03;3.40;;;13.10;99.90;;;;;;4983302;28;20178;-57
2021/12/31 02:49:47;;;;;;;4.73;4.03;;;13.20;99.90;;;;;;4984477;28;20436;-55
2021/12/31 02:52:15;;;;;;;3.57;3.23;;;13.10;99.90;;;;;;4986210;28;20184;-57
2021/12/31 02:54:44;;;;;;;4.50;3.03;;;13.00;99.90;;;;;;4981996;28;20460;-57
2021/12/31 02:57:11;;;;;;;6.10;3.57;;;12.90;99.90;;;;;;4961464;28;20938;-54
2021/12/31 02:59:37;;;;;;;3.83;3.43;;;13.00;99.90;;;;;;4984757;28;20480;-57
2021/12/31 03:02:06;;;;;;;6.77;3.40;;;13.20;99.90;;;;;;4983316;28;20421;-56
2021/12/31 03:04:34;;;;;;;4.70;3.47;;;13.10;99.90;;;;;;4982241;28;20446;-55
2021/12/31 03:07:06;;;;;;;5.10;4.00;;;13.10;99.90;;;;;;4985082;28;20421;-53
2021/12/31 03:09:34;;;;;;;4.60;3.83;;;13.10;99.90;;;;;;4984833;28;20448;-57
2021/12/31 03:12:01;;;;;;;5.10;3.60;;;13.20;99.90;;;;;;4983120;28;20508;-56
2021/12/31 03:14:29;;;;;;;5.33;3.43;;;13.10;99.90;;;;;;4970665;28;20881;-57
2021/12/31 03:16:54;;;;;;;8.70;3.53;;;13.30;99.90;;;;;;4983618;28;20432;-57
2021/12/31 03:19:21;;;;;;;6.50;3.73;;;13.20;99.90;;;;;;4984704;28;20472;-55
2021/12/31 03:21:47;;;;;;;3.80;3.50;;;13.10;99.90;;;;;;4982062;28;20188;-56
2021/12/31 03:24:13;;;;;;;5.40;3.63;;;13.10;99.90;;;;;;4982113;28;20476;-57
2021/12/31 03:26:39;;;;;;;6.30;3.80;;;13.10;99.90;;;;;;4980685;28;20418;-55
2021/12/31 03:29:05;;;;;;;5.13;3.60;;;13.00;99.90;;;;;;4983135;28;20445;-56
2021/12/31 03:31:31;;;;;;;3.83;3.40;;;13.10;99.90;;;;;;4967072;28;20686;-57
2021/12/31 03:33:56;;;;;;;4.43;3.47;;;12.90;99.90;;;;;;4984100;28;20414;-57
2021/12/31 03:36:22;;;;;;;5.50;5.00;;;12.90;99.90;;;;;;4984376;28;20220;-56
2021/12/31 03:38:48;;;;;;;6.70;4.10;;;12.90;99.90;;;;;;4984081;28;20753;-52
2021/12/31 03:41:14;;;;;;;4.30;3.83;;;12.90;99.90;;;;;;4984647;28;20586;-55
2021/12/31 03:43:39;;;;;;;6.27;3.40;;;13.00;99.90;;;;;;4979767;28;20186;-55
2021/12/31 03:46:07;;;;;;;6.23;3.67;;;12.90;99.90;;;;;;4984267;28;20450;-56
2021/12/31 03:48:32;;;;;;;10.10;3.30;;;12.90;99.90;;;;;;4981939;28;20178;-55
2021/12/31 03:50:58;;;;;;;6.23;3.33;;;13.10;99.90;;;;;;4982811;28;20461;-56
2021/12/31 03:53:24;;;;;;;7.17;3.63;;;13.10;99.90;;;;;;4983563;28;20185;-56
2021/12/31 03:55:49;;;;;;;4.87;3.93;;;13.00;99.90;;;;;;4983733;28;20671;-56
2021/12/31 03:58:15;;;;;;;4.07;3.13;;;13.00;99.90;;;;;;4984416;28;20241;-54
2021/12/31 04:00:40;;;;;;;5.23;4.20;;;13.00;99.90;;;;;;4982300;28;20546;-56
2021/12/31 04:03:08;;;;;;;4.07;3.67;;;12.90;99.90;;;;;;4983499;28;20182;-55
2021/12/31 04:05:35;;;;;;;4.10;3.30;;;12.80;99.90;;;;;;4981782;28;20202;-57
2021/12/31 04:08:00;;;;;;;4.10;3.70;;;13.00;99.90;;;;;;4982903;28;20424;-55
2021/12/31 04:10:26;;;;;;;9.03;4.00;;;12.90;99.90;;;;;;4984155;28;20531;-55
2021/12/31 04:12:52;;;;;;;4.17;3.73;;;12.70;99.90;;;;;;4982402;28;20193;-54
2021/12/31 04:15:18;;;;;;;7.57;3.80;;;12.70;99.90;;;;;;4982772;28;20244;-54
2021/12/31 04:17:43;;;;;;;6.00;4.30;;;12.50;99.90;;;;;;4981923;28;20193;-55
2021/12/31 04:20:18;;;;;;;6.70;3.63;;;12.40;99.90;;;;;;4983660;28;20203;-54
2021/12/31 04:22:51;;;;;;;4.77;4.23;;;12.50;99.90;;;;;;4981372;28;20178;-54
2021/12/31 04:25:17;;;;;;;5.43;4.40;;;12.50;99.90;;;;;;4979466;28;20450;-54
2021/12/31 04:27:42;;;;;;;5.40;4.90;;;12.40;99.90;;;;;;4984810;28;20428;-56
2021/12/31 04:30:09;;;;;;;5.43;4.30;;;12.50;99.90;;;;;;4982898;28;20213;-55
2021/12/31 04:32:34;;;;;;;5.33;4.10;;;12.40;99.90;;;;;;4983121;28;20185;-54
2021/12/31 04:35:00;;;;;;;4.60;4.10;;;12.30;99.90;;;;;;4981527;28;20491;-54
2021/12/31 04:37:25;;;;;;;5.40;4.80;;;12.20;99.90;;;;;;4982287;28;20606;-56
2021/12/31 04:39:51;;;;;;;6.37;4.17;;;12.30;99.90;;;;;;4984806;28;20256;-56
2021/12/31 04:42:16;;;;;;;11.60;4.97;;;12.30;99.90;;;;;;4983655;28;20178;-57
2021/12/31 04:44:42;;;;;;;8.20;4.70;;;12.20;99.90;;;;;;4984433;28;20206;-54
2021/12/31 04:47:08;;;;;;;6.30;4.90;;;12.20;99.90;;;;;;4982101;28;20181;-55
2021/12/31 04:49:33;;;;;;;6.10;4.57;;;12.30;99.90;;;;;;4983315;28;20608;-54
2021/12/31 04:51:59;;;;;;;5.30;4.80;;;12.10;99.90;;;;;;4982869;28;20550;-56
2021/12/31 04:54:25;;;;;;;7.57;4.73;;;12.10;99.90;;;;;;4982759;28;20217;-56
2021/12/31 04:56:53;;;;;;;8.53;4.80;;;12.10;99.90;;;;;;4981351;28;20632;-54
2021/12/31 04:59:20;;;;;;;6.17;5.13;;;12.10;99.90;;;;;;4984123;28;20210;-54
2021/12/31 05:01:47;;;;;;;6.60;4.93;;;12.10;99.90;;;;;;4981860;28;20426;-54
2021/12/31 05:04:14;;;;;;;5.57;5.00;;;11.90;99.90;;;;;;4981310;28;20428;-52
2021/12/31 05:06:40;;;;;;;7.40;5.27;;;11.90;99.90;;;;;;4985246;28;20447;-56
2021/12/31 05:09:06;;;;;;;5.70;5.00;;;11.90;99.90;;;;;;4984814;28;20728;-53
2021/12/31 05:11:32;;;;;;;5.60;4.70;;;11.80;99.90;;;;;;4982968;28;20836;-55
2021/12/31 05:13:58;;;;;;;5.20;4.70;;;11.90;99.90;;;;;;4984238;28;20273;-55
2021/12/31 05:16:24;;;;;;;4.97;4.47;;;12.10;99.90;;;;;;4980316;28;20630;-56
2021/12/31 05:18:49;;;;;;;8.10;5.30;;;11.80;99.90;;;;;;4985563;28;20461;-56
2021/12/31 05:21:15;;;;;;;8.60;5.03;;;11.90;99.90;;;;;;4981090;28;21493;-56
2021/12/31 05:23:41;;;;;;;10.13;5.50;;;11.80;99.90;;;;;;4980491;28;20181;-53
2021/12/31 05:26:06;;;;;;;6.10;4.50;;;11.90;99.90;;;;;;4984602;28;20236;-58
2021/12/31 05:28:36;;;;;;;6.83;4.83;;;11.80;99.90;;;;;;4982663;28;20569;-55
2021/12/31 05:31:02;;;;;;;6.43;5.70;;;11.90;99.90;;;;;;4980328;28;20185;-56
2021/12/31 05:33:27;;;;;;;7.17;5.37;;;11.90;99.90;;;;;;4981858;28;20436;-57
2021/12/31 05:35:56;;;;;;;4.80;4.30;;;11.90;99.90;;;;;;4967114;28;20206;-57
2021/12/31 05:38:22;;;;;;;6.70;5.10;;;11.80;99.90;;;;;;4986999;28;20694;-55
2021/12/31 05:40:47;;;;;;;4.87;4.37;;;11.70;99.90;;;;;;4986170;28;20634;-56
2021/12/31 05:43:13;;;;;;;4.80;4.40;;;11.90;99.90;;;;;;4987683;28;20553;-55
2021/12/31 05:45:39;;;;;;;5.87;4.13;;;11.90;99.90;;;;;;4985655;28;20487;-55
2021/12/31 05:48:05;;;;;;;5.70;4.67;;;11.70;99.90;;;;;;4987387;28;20182;-53
2021/12/31 05:50:32;;;;;;;5.87;4.40;;;11.80;99.90;;;;;;4985801;28;20487;-56
2021/12/31 05:53:00;;;;;;;4.67;3.90;;;11.80;99.90;;;;;;4985331;28;20734;-55
2021/12/31 05:55:26;;;;;;;4.47;3.90;;;11.50;99.90;;;;;;4968767;28;20992;-55
2021/12/31 05:57:52;;;;;;;5.30;3.77;;;11.40;99.90;;;;;;4985125;28;20437;-53
2021/12/31 06:00:18;;;;;;;4.40;4.00;;;11.40;99.90;;;;;;4985861;28;20426;-55
2021/12/31 06:02:44;;;;;;;6.63;4.20;;;11.50;99.90;;;;;;4985286;28;20552;-55
2021/12/31 06:05:10;;;;;;;4.70;3.90;;;11.50;99.90;;;;;;4967729;28;21340;-56
2021/12/31 06:07:36;;;;;;;4.23;3.70;;;11.60;99.90;;;;;;4985756;28;20717;-56
2021/12/31 06:10:02;;;;;;;5.20;3.87;;;11.80;99.90;;;;;;4983199;28;20429;-56
2021/12/31 06:12:28;;;;;;;4.93;4.53;;;12.00;99.90;;;;;;4971264;28;20182;-57
2021/12/31 06:14:58;;;;;;;6.53;3.73;;;11.80;99.90;;;;;;4982172;28;20456;-55
2021/12/31 06:17:26;;;;;;;4.43;3.70;;;11.70;99.90;;;;;;4984947;28;20448;-52
2021/12/31 06:19:53;;;;;;;5.10;4.20;;;11.80;99.90;;;;;;4987185;28;20476;-52
2021/12/31 06:22:19;;;;;;;3.50;3.13;;;11.90;99.90;;;;;;4985802;28;20441;-56
2021/12/31 06:24:45;;;;;;;4.73;3.63;;;11.90;99.90;;;;;;4984971;28;20460;-56
2021/12/31 06:27:10;;;;;;;4.43;3.57;;;12.00;99.90;;;;;;4985087;28;20857;-55
2021/12/31 06:29:36;;;;;;;3.90;3.50;;;11.90;99.90;;;;;;4983489;28;20661;-56
2021/12/31 06:32:02;;;;;;;3.57;3.23;;;12.00;99.90;;;;;;4985153;28;20340;-57
2021/12/31 06:34:27;;;;;;;4.40;3.30;;;11.90;99.90;;;;;;4982874;28;20206;-55
2021/12/31 06:36:53;;;;;;;5.17;3.83;;;12.00;99.90;;;;;;4984661;28;20610;-55
2021/12/31 06:39:18;;;;;;;4.20;3.20;;;12.00;99.90;;;;;;4981767;28;21706;-57
2021/12/31 06:41:44;;;;;;;4.30;3.33;;;12.00;99.90;;;;;;4986064;28;20210;-55
2021/12/31 06:44:10;;;;;;;5.93;3.87;;;11.90;99.90;;;;;;4983136;28;20307;-57
2021/12/31 06:46:36;;;;;;;5.03;3.80;;;11.80;99.90;;;;;;4986250;28;20174;-56
2021/12/31 06:49:01;;;;;;;4.13;3.20;;;11.90;99.90;;;;;;4981837;28;20798;-56
2021/12/31 06:51:27;;;;;;;3.70;3.20;;;11.90;99.90;;;;;;4984794;28;20252;-56
2021/12/31 06:53:53;;;;;;;4.10;3.70;;;11.80;99.90;;;;;;4982009;28;20229;-57
2021/12/31 06:56:18;;;;;;;6.80;3.80;;;11.80;99.90;;;;;;4982144;28;20214;-57
2021/12/31 06:58:44;;;;;;;6.17;3.60;;;11.80;99.90;;;;;;4986379;28;20462;-57
2021/12/31 07:01:10;;;;;;;5.30;3.97;;;11.80;99.90;;;;;;4985059;28;20237;-57
2021/12/31 07:03:36;;;;;;;5.93;4.10;;;11.60;99.90;;;;;;4983746;28;20799;-55
2021/12/31 07:06:02;;;;;;;3.93;3.50;;;11.70;99.90;;;;;;4983479;28;20212;-53
2021/12/31 07:08:27;;;;;;;8.90;3.80;;;11.80;99.90;;;;;;4984994;28;20604;-55
2021/12/31 07:10:53;;;;;;;4.30;3.20;;;11.80;99.90;;;;;;4983908;28;20429;-53
2021/12/31 07:13:19;;;;;;;4.13;3.13;;;11.70;99.90;;;;;;4985587;28;20193;-56
2021/12/31 07:15:49;;;;;;;3.93;3.13;;;11.60;99.90;;;;;;4983021;28;20569;-53
2021/12/31 07:18:15;;;;;;;7.03;3.57;;;11.60;99.90;;;;;;4966931;28;20201;-56
2021/12/31 07:20:41;;;;;;;3.70;3.27;;;11.70;99.90;;;;;;4981325;28;20429;-55
2021/12/31 07:23:10;;;;;;;4.70;3.90;;;11.30;99.90;;;;;;4983986;28;20436;-55
2021/12/31 07:25:38;;;;;;;7.80;3.23;;;11.30;99.90;;;;;;4981881;28;20847;-56
2021/12/31 07:28:04;;;;;;;4.73;3.40;;;11.50;99.90;;;;;;4982893;28;20424;-56
2021/12/31 07:30:30;;;;;;;4.90;3.20;;;11.60;99.90;;;;;;4984584;28;20429;-56
2021/12/31 07:32:56;;;;;;;4.27;2.83;;;11.50;99.90;;;;;;4983707;28;20438;-56
2021/12/31 07:35:23;;;;;;;7.60;3.37;;;11.40;99.90;;;;;;4983908;28;20674;-56
2021/12/31 07:37:49;;;;;;;3.03;2.67;;;11.40;99.90;;;;;;4982041;28;20365;-56
2021/12/31 07:40:24;;;;;;;3.97;3.43;;;11.40;99.90;;;;;;4985776;28;20875;-53
2021/12/31 07:42:50;;;;;;;4.60;3.40;;;11.60;99.90;;;;;;4982213;28;20428;-56
2021/12/31 07:45:15;;;;;;;3.50;3.10;;;11.40;99.90;;;;;;4978727;28;20996;-56
2021/12/31 07:47:41;;;;;;;3.33;2.50;;;11.30;99.90;;;;;;4983941;28;20196;-55
2021/12/31 07:50:07;;;;;;;4.90;3.10;;;11.30;99.90;;;;;;4981297;28;20301;-56
2021/12/31 07:52:32;;;;;;;3.43;2.87;;;11.20;99.90;;;;;;4982036;28;20204;-54
2021/12/31 07:54:58;;;;;;;4.40;4.00;;;11.20;99.90;;;;;;4983679;28;20511;-56
2021/12/31 07:57:24;;;;;;;4.20;2.90;;;11.10;99.90;;;;;;4964338;28;20175;-56
2021/12/31 07:59:49;;;;;;;3.83;2.50;;;11.00;99.90;;;;;;4985290;28;20293;-56
2021/12/31 08:02:15;;;;;;;4.73;3.37;;;11.10;99.90;;;;;;4983026;28;20661;-55
2021/12/31 08:04:40;;;;;;;6.60;3.70;;;11.10;99.90;;;;;;4980935;28;20202;-56
2021/12/31 08:07:06;;;;;;;4.50;2.70;;;11.00;99.90;;;;;;4984673;28;20237;-56
2021/12/31 08:09:31;;;;;;;6.40;3.33;;;10.80;99.90;;;;;;4981875;28;20182;-55
2021/12/31 08:11:57;;;;;;;4.30;2.97;;;10.90;99.90;;;;;;4983212;28;20537;-55
2021/12/31 08:14:23;;;;;;;3.40;2.90;;;10.90;99.90;;;;;;4981759;28;20213;-57
2021/12/31 08:16:48;;;;;;;4.00;3.60;;;11.10;99.90;;;;;;4981716;28;20287;-56
2021/12/31 08:19:14;;;;;;;4.97;3.27;;;11.10;99.90;;;;;;4978838;28;20213;-54
2021/12/31 08:21:40;;;;;;;3.83;2.83;;;11.00;99.90;;;;;;4981186;28;20209;-54
2021/12/31 08:24:06;;;;;;;3.10;2.80;;;11.10;99.90;;;;;;4981586;28;20246;-55
2021/12/31 08:26:31;;;;;;;3.43;2.90;;;10.90;99.90;;;;;;4968784;28;20449;-55
2021/12/31 08:28:57;;;;;;;4.17;2.80;;;10.70;99.90;;;;;;4981982;28;20190;-57
2021/12/31 08:31:22;;;;;;;6.73;3.50;;;10.60;99.90;;;;;;4982430;28;20272;-57
2021/12/31 08:33:48;;;;;;;4.57;2.40;;;10.90;99.90;;;;;;4982743;28;20248;-56
2021/12/31 08:36:14;;;;;;;3.40;2.77;;;10.90;99.90;;;;;;4982402;28;20320;-55
2021/12/31 08:38:40;;;;;;;4.20;2.60;;;10.80;99.90;;;;;;4983793;28;20555;-56
2021/12/31 08:41:06;;;;;;;4.47;2.70;;;10.90;99.90;;;;;;4984044;28;20193;-55
2021/12/31 08:43:31;;;;;;;4.33;2.70;;;11.00;99.90;;;;;;4980324;28;20201;-56
2021/12/31 08:45:57;;;;;;;5.40;2.83;;;10.90;99.90;;;;;;4981531;28;20210;-56
2021/12/31 08:48:22;;;;;;;4.13;2.97;;;10.70;99.90;;;;;;4982916;28;20204;-54
2021/12/31 08:50:48;;;;;;;6.13;3.23;;;10.90;99.90;;;;;;4980442;28;20260;-56
2021/12/31 08:53:14;;;;;;;3.60;2.80;;;10.80;99.90;;;;;;4983576;28;20843;-56
2021/12/31 08:55:40;;;;;;;3.40;2.67;;;10.90;99.90;;;;;;4968853;28;20679;-57
2021/12/31 08:58:06;;;;;;;5.67;3.60;;;10.80;99.90;;;;;;4984487;28;20480;-54
2021/12/31 09:00:32;;;;;;;6.90;4.30;;;10.90;99.90;;;;;;4977894;28;20447;-56
2021/12/31 09:02:58;;;;;;;3.87;2.93;;;11.10;99.90;;;;;;4980515;28;20441;-56
2021/12/31 09:05:24;;;;;;;3.80;3.00;;;11.10;99.90;;;;;;4984074;28;20464;-56
2021/12/31 09:07:50;;;;;;;3.03;2.73;;;10.90;99.90;;;;;;4983585;28;20182;-57
2021/12/31 09:10:16;;;;;;;3.17;2.77;;;11.00;99.90;;;;;;4982475;28;20205;-55
2021/12/31 09:12:46;;;;;;;3.80;2.60;;;11.00;99.90;;;;;;4985232;28;20449;-53
2021/12/31 09:15:12;;;;;;;2.93;2.60;;;10.90;99.90;;;;;;4984434;28;20463;-55
2021/12/31 09:17:38;;;;;;;4.93;2.80;;;10.90;99.90;;;;;;4985648;28;20813;-55
2021/12/31 09:20:04;;;;;;;3.10;2.70;;;10.90;99.90;;;;;;4986024;28;20213;-56
2021/12/31 09:22:30;;;;;;;5.40;3.00;;;11.00;99.90;;;;;;4982684;28;20237;-56
2021/12/31 09:24:58;;;;;;;3.23;2.93;;;11.00;99.90;;;;;;4985756;28;20487;-56
2021/12/31 09:27:24;;;;;;;4.20;3.23;;;11.10;99.90;;;;;;4986475;28;20214;-57
2021/12/31 09:29:50;;;;;;;3.63;3.07;;;11.10;99.90;;;;;;4969259;28;20421;-54
2021/12/31 09:32:16;;;;;;;7.10;3.23;;;10.90;99.90;;;;;;4988802;28;20429;-52
2021/12/31 09:34:43;;;;;;;3.30;2.60;;;11.00;99.90;;;;;;4985463;28;20210;-55
2021/12/31 09:37:10;;;;;;;4.93;3.30;;;11.00;99.90;;;;;;4986991;28;20221;-55
2021/12/31 09:39:36;;;;;;;4.37;3.80;;;11.10;99.90;;;;;;4985597;28;20828;-55
2021/12/31 09:42:04;;;;;;;5.77;3.63;;;11.10;99.90;;;;;;4986530;28;20851;-57
2021/12/31 09:44:30;;;;;;;6.87;6.07;;;11.10;99.90;;;;;;4983141;28;20568;-55
2021/12/31 09:46:56;;;;;;;6.10;4.47;;;11.00;99.90;;;;;;4987497;28;20853;-55
2021/12/31 09:49:21;;;;;;;5.87;4.60;;;11.10;99.90;;;;;;4984123;28;20438;-57
2021/12/31 09:51:47;;;;;;;4.47;4.07;;;11.30;99.90;;;;;;4986416;28;20583;-56
2021/12/31 09:54:12;;;;;;;5.10;4.30;;;11.40;99.90;;;;;;4983984;28;20198;-55
2021/12/31 09:56:40;;;;;;;6.10;4.70;;;11.40;99.90;;;;;;4987422;28;20202;-56
2021/12/31 09:59:07;;;;;;;7.00;4.30;;;11.40;99.90;;;;;;4985163;28;20955;-55
2021/12/31 10:01:32;;;;;;;4.47;4.07;;;11.30;99.90;;;;;;4983021;28;20412;-55
2021/12/31 10:04:00;;;;;;;4.70;4.20;;;11.30;99.90;;;;;;4985603;28;20417;-53
2021/12/31 10:06:26;;;;;;;6.13;5.27;;;11.10;99.90;;;;;;4981865;28;20197;-56
2021/12/31 10:08:57;;;;;;;5.33;4.80;;;11.10;99.90;;;;;;4986027;28;20790;-56
2021/12/31 10:11:24;;;;;;;6.27;4.57;;;11.20;99.90;;;;;;4985111;28;20499;-55
2021/12/31 10:13:58;;;;;;;4.90;4.50;;;11.30;99.90;;;;;;4984893;28;20968;-54
2021/12/31 10:16:33;;;;;;;6.60;4.97;;;11.20;99.90;;;;;;4985330;28;20498;-56
2021/12/31 10:19:09;;;;;;;5.40;4.70;;;11.30;99.90;;;;;;4984359;28;20614;-56
2021/12/31 10:21:39;;;;;;;5.20;4.23;;;11.30;99.90;;;;;;4987002;28;20416;-57
2021/12/31 10:24:38;;;;;;;6.03;4.70;;;11.40;99.90;;;;;;4984231;28;20472;-54
2021/12/31 10:27:09;;;;;;;7.20;5.17;;;11.30;99.90;;;;;;4985477;28;20414;-56
2021/12/31 10:29:49;;;;;;;6.70;5.53;;;11.30;99.90;;;;;;4984797;28;20585;-53
2021/12/31 10:32:16;;;;;;;8.20;5.80;;;11.40;99.90;;;;;;4983730;28;20429;-55
2021/12/31 10:34:41;;;;;;;10.30;7.50;;;11.40;99.90;;;;;;4985460;28;20461;-57
2021/12/31 10:37:23;;;;;;;7.37;5.97;;;11.40;99.90;;;;;;4985251;28;20432;-55
2021/12/31 10:40:00;;;;;;;7.70;6.20;;;11.40;99.90;;;;;;4984380;28;20201;-55
2021/12/31 10:42:31;;;;;;;9.23;5.97;;;11.40;99.90;;;;;;4983519;28;20507;-56
2021/12/31 10:45:00;;;;;;;6.77;5.90;;;11.40;99.90;;;;;;4981977;28;20437;-56
2021/12/31 10:47:42;;;;;;;12.50;8.00;;;11.40;99.90;;;;;;4982970;28;20417;-56
2021/12/31 10:50:13;;;;;;;9.87;7.47;;;11.50;99.90;;;;;;4983464;28;20487;-57
2021/12/31 10:52:42;;;;;;;9.07;7.17;;;11.60;99.90;;;;;;4984319;28;20437;-55
2021/12/31 10:55:17;;;;;;;10.37;6.90;;;11.60;99.90;;;;;;4984643;28;20491;-55
2021/12/31 10:57:44;;;;;;;9.93;6.30;;;11.70;99.90;;;;;;4983466;28;20847;-56
2021/12/31 11:00:11;;;;;;;8.60;6.23;;;11.60;99.90;;;;;;4983911;28;20425;-54
2021/12/31 11:02:38;;;;;;;7.87;6.10;;;11.40;99.90;;;;;;4984626;28;20534;-56
2021/12/31 11:05:06;;;;;;;8.33;6.67;;;11.40;99.90;;;;;;4983258;28;20812;-55
2021/12/31 11:07:32;;;;;;;7.90;6.23;;;11.40;99.90;;;;;;4983690;28;20443;-57
2021/12/31 11:09:58;;;;;;;7.30;6.60;;;11.40;99.90;;;;;;4985971;28;20523;-57
2021/12/31 11:12:28;;;;;;;8.10;6.57;;;11.40;99.90;;;;;;4986058;28;20182;-55
2021/12/31 11:14:54;;;;;;;10.80;7.53;;;11.40;99.90;;;;;;4984255;28;20915;-56
2021/12/31 11:17:21;;;;;;;9.30;7.33;;;11.40;99.90;;;;;;4986120;28;20468;-58
2021/12/31 11:19:49;;;;;;;10.40;8.10;;;11.50;99.90;;;;;;4968797;28;20851;-56
2021/12/31 11:22:16;;;;;;;9.90;8.63;;;11.30;99.90;;;;;;4983306;28;20421;-55
2021/12/31 11:24:43;;;;;;;10.20;8.13;;;11.30;99.90;;;;;;4983146;28;20472;-56
2021/12/31 11:27:28;;;;;;;11.03;9.20;;;11.40;99.90;;;;;;4968037;28;20795;-56
2021/12/31 11:29:55;;;;;;;17.80;10.90;;;11.60;99.90;;;;;;4969458;28;20922;-57
2021/12/31 11:32:42;;;;;;;13.43;10.57;;;11.60;99.90;;;;;;4984950;28;20797;-56
2021/12/31 11:35:26;;;;;;;12.53;8.77;;;11.80;99.90;;;;;;4983078;28;20864;-55
2021/12/31 11:37:52;;;;;;;11.47;8.63;;;11.80;99.90;;;;;;4983781;28;20478;-57
2021/12/31 11:40:31;;;;;;;14.87;8.27;;;11.90;99.90;;;;;;4984623;28;21092;-54
2021/12/31 11:43:23;;;;;;;10.77;8.10;;;11.90;99.90;;;;;;4984883;28;20177;-56
2021/12/31 11:46:08;;;;;;;8.50;6.93;;;11.90;99.90;;;;;;4984987;28;20523;-56
2021/12/31 11:49:01;;;;;;;7.90;7.10;;;11.80;99.90;;;;;;4974484;28;20476;-56
2021/12/31 11:51:35;;;;;;;9.10;7.17;;;11.90;99.90;;;;;;4976926;28;20453;-57
2021/12/31 11:54:01;;;;;;;11.33;7.40;;;12.00;99.90;;;;;;4983068;28;20795;-55
2021/12/31 11:56:47;;;;;;;9.00;8.10;;;12.00;99.90;;;;;;4984255;28;20456;-58
2021/12/31 11:59:16;;;;;;;9.10;8.10;;;12.10;99.90;;;;;;4984633;28;20335;-56
2021/12/31 12:01:47;;;;;;;8.90;7.67;;;11.90;99.90;;;;;;4985018;28;20486;-56
2021/12/31 12:04:24;;;;;;;10.50;7.77;;;11.90;99.90;;;;;;4983155;28;20437;-57
2021/12/31 12:06:56;;;;;;;9.37;8.27;;;12.00;99.90;;;;;;4985390;28;20433;-58
2021/12/31 12:09:23;;;;;;;12.00;8.83;;;12.00;99.90;;;;;;4983761;28;20468;-57
2021/12/31 12:12:14;;;;;;;9.43;8.10;;;12.10;99.90;;;;;;4970712;28;20429;-57
2021/12/31 12:14:41;;;;;;;12.97;9.33;;;12.00;99.90;;;;;;4982514;28;20817;-57
2021/12/31 12:17:09;;;;;;;9.73;7.97;;;12.00;99.90;;;;;;4983544;28;20456;-56
2021/12/31 12:19:46;;;;;;;9.83;8.27;;;12.20;99.90;;;;;;4982726;28;20821;-57
2021/12/31 12:22:28;;;;;;;10.23;7.77;;;12.30;99.90;;;;;;4981944;28;20966;-59
2021/12/31 12:24:56;;;;;;;12.90;9.50;;;12.50;99.90;;;;;;4983747;28;20456;-56
2021/12/31 12:27:23;;;;;;;10.00;8.80;;;12.60;99.90;;;;;;4982705;28;20421;-55
2021/12/31 12:29:50;;;;;;;16.63;11.90;;;12.70;99.90;;;;;;4980541;28;20442;-57
2021/12/31 12:32:18;;;;;;;14.33;10.47;;;12.80;99.90;;;;;;4983705;28;20799;-56
2021/12/31 12:34:44;;;;;;;24.17;11.67;;;13.00;99.90;;;;;;4982666;28;20507;-57
2021/12/31 12:37:10;;;;;;;12.37;9.90;;;12.90;99.90;;;;;;4982588;28;20445;-58
2021/12/31 12:39:36;;;;;;;11.30;8.70;;;12.70;99.90;;;;;;4968437;28;20473;-57
2021/12/31 12:42:06;;;;;;;10.97;8.97;;;12.60;99.90;;;;;;4983172;28;20451;-56
2021/12/31 12:44:33;;;;;;;19.60;11.47;;;12.70;99.90;;;;;;4982640;28;20496;-56
2021/12/31 12:47:00;;;;;;;12.30;8.90;;;12.80;99.90;;;;;;4980996;28;20428;-58
2021/12/31 12:49:26;;;;;;;15.90;11.33;;;12.80;99.90;;;;;;4984320;28;20455;-57
2021/12/31 12:51:54;;;;;;;14.50;10.23;;;12.90;99.90;;;;;;4979751;28;20876;-56